createdAt,value
2019-02-25T00:00:21.604Z,81.76
2019-02-25T00:01:21.721Z,81.65
2019-02-25T00:02:21.598Z,81.45
2019-02-25T00:03:21.556Z,81.13
2019-02-25T00:04:21.646Z,81.23
2019-02-25T00:05:21.530Z,80.71
2019-02-25T00:06:21.665Z,79.77
2019-02-25T00:07:21.570Z,79.05
2019-02-25T00:08:21.682Z,79.67
2019-02-25T00:09:21.666Z,79.43
2019-02-25T00:10:21.459Z,79.22
2019-02-25T00:11:21.610Z,78.80
2019-02-25T00:12:21.495Z,78.91
2019-02-25T00:13:21.610Z,78.07
2019-02-25T00:14:21.439Z,78.80
2019-02-25T00:15:21.428Z,79.32
2019-02-25T00:16:21.632Z,79.53
2019-02-25T00:17:21.434Z,79.49
2019-02-25T00:18:21.536Z,79.32
2019-02-25T00:19:21.365Z,79.63
2019-02-25T00:20:21.535Z,79.94
2019-02-25T00:21:21.372Z,80.05
2019-02-25T00:22:21.530Z,79.94
2019-02-25T00:23:21.325Z,79.22
2019-02-25T00:24:21.493Z,79.63
2019-02-25T00:25:21.323Z,79.01
2019-02-25T00:26:22.516Z,79.22
2019-02-25T00:27:21.329Z,79.84
2019-02-25T00:28:21.416Z,80.09
2019-02-25T00:29:21.294Z,80.16
2019-02-25T00:30:21.405Z,80.09
2019-02-25T00:31:21.263Z,80.30
2019-02-25T00:32:21.271Z,80.82
2019-02-25T00:33:21.234Z,81.96
2019-02-25T00:34:21.336Z,81.76
2019-02-25T00:35:21.225Z,81.34
2019-02-25T00:36:21.348Z,81.59
2019-02-25T00:37:21.310Z,80.23
2019-02-25T00:38:21.193Z,79.91
2019-02-25T00:39:21.162Z,79.57
2019-02-25T00:40:21.272Z,80.19
2019-02-25T00:41:21.168Z,80.09
2019-02-25T00:42:21.334Z,79.67
2019-02-25T00:43:21.158Z,78.52
2019-02-25T00:44:21.112Z,78.17
2019-02-25T00:45:21.332Z,78.38
2019-02-25T00:46:21.107Z,79.01
2019-02-25T00:47:21.282Z,78.28
2019-02-25T00:48:21.082Z,78.17
2019-02-25T00:49:21.241Z,78.59
2019-02-25T00:50:21.043Z,78.49
2019-02-25T00:51:21.250Z,79.05
2019-02-25T00:52:21.027Z,79.22
2019-02-25T00:53:21.930Z,79.63
2019-02-25T00:54:21.018Z,78.69
2019-02-25T00:55:21.158Z,78.83
2019-02-25T00:56:20.985Z,78.94
2019-02-25T00:57:21.170Z,78.52
2019-02-25T00:58:20.990Z,79.05
2019-02-25T00:59:21.097Z,79.63
2019-02-25T01:00:21.918Z,79.25
2019-02-25T01:01:20.933Z,79.46
2019-02-25T01:02:20.941Z,79.32
2019-02-25T01:03:21.068Z,79.05
2019-02-25T01:04:20.925Z,79.15
2019-02-25T01:05:21.039Z,79.05
2019-02-25T01:06:20.926Z,79.15
2019-02-25T01:07:20.866Z,78.52
2019-02-25T01:08:20.885Z,77.69
2019-02-25T01:09:21.069Z,77.55
2019-02-25T01:10:20.830Z,77.86
2019-02-25T01:11:20.975Z,77.86
2019-02-25T01:12:20.813Z,77.76
2019-02-25T01:13:20.831Z,77.76
2019-02-25T01:14:20.815Z,78.28
2019-02-25T01:15:21.925Z,78.17
2019-02-25T01:16:20.786Z,78.63
2019-02-25T01:17:20.895Z,78.31
2019-02-25T01:18:20.788Z,78.31
2019-02-25T01:19:20.746Z,78.63
2019-02-25T01:20:20.747Z,78.11
2019-02-25T01:21:21.846Z,77.69
2019-02-25T01:22:20.715Z,79.05
2019-02-25T01:23:20.896Z,78.83
2019-02-25T01:24:20.695Z,79.25
2019-02-25T01:25:20.700Z,79.15
2019-02-25T01:26:20.889Z,79.15
2019-02-25T01:27:20.675Z,79.05
2019-02-25T01:28:20.828Z,79.25
2019-02-25T01:29:20.658Z,78.87
2019-02-25T01:30:20.778Z,78.00
2019-02-25T01:31:20.633Z,77.90
2019-02-25T01:32:20.803Z,77.37
2019-02-25T01:33:20.610Z,76.92
2019-02-25T01:34:20.787Z,76.92
2019-02-25T01:35:20.600Z,76.40
2019-02-25T01:36:20.579Z,75.98
2019-02-25T01:37:20.571Z,75.95
2019-02-25T01:38:20.744Z,75.88
2019-02-25T01:39:20.539Z,75.85
2019-02-25T01:40:20.717Z,76.26
2019-02-25T01:41:20.521Z,76.20
2019-02-25T01:42:20.518Z,75.88
2019-02-25T01:43:20.500Z,75.95
2019-02-25T01:44:20.688Z,75.78
2019-02-25T01:45:20.979Z,76.09
2019-02-25T01:46:20.580Z,76.51
2019-02-25T01:47:20.474Z,77.03
2019-02-25T01:48:20.450Z,77.23
2019-02-25T01:49:20.622Z,77.23
2019-02-25T01:50:20.471Z,77.34
2019-02-25T01:51:22.184Z,77.58
2019-02-25T01:52:20.468Z,77.37
2019-02-25T01:53:20.545Z,77.48
2019-02-25T01:54:20.382Z,77.80
2019-02-25T01:55:20.611Z,77.55
2019-02-25T01:56:20.390Z,77.69
2019-02-25T01:57:28.041Z,77.80
2019-02-25T01:58:20.356Z,78.11
2019-02-25T01:59:22.520Z,77.69
2019-02-25T02:00:20.347Z,77.69
2019-02-25T02:01:20.534Z,77.17
2019-02-25T02:02:20.323Z,77.48
2019-02-25T02:03:20.398Z,77.48
2019-02-25T02:04:20.289Z,77.37
2019-02-25T02:05:20.300Z,77.69
2019-02-25T02:06:20.295Z,78.11
2019-02-25T02:07:21.340Z,78.31
2019-02-25T02:08:20.243Z,79.05
2019-02-25T02:09:20.358Z,79.81
2019-02-25T02:10:20.241Z,79.60
2019-02-25T02:11:20.195Z,78.97
2019-02-25T02:12:20.227Z,79.36
2019-02-25T02:13:22.319Z,80.02
2019-02-25T02:14:20.187Z,80.13
2019-02-25T02:15:20.285Z,80.23
2019-02-25T02:16:20.154Z,80.75
2019-02-25T02:17:20.182Z,80.96
2019-02-25T02:18:20.282Z,81.79
2019-02-25T02:19:20.134Z,81.79
2019-02-25T02:20:20.330Z,81.83
2019-02-25T02:21:20.298Z,81.62
2019-02-25T02:22:20.272Z,81.10
2019-02-25T02:23:20.081Z,80.68
2019-02-25T02:24:20.234Z,80.37
2019-02-25T02:25:20.068Z,80.47
2019-02-25T02:26:21.192Z,80.58
2019-02-25T02:27:20.090Z,80.33
2019-02-25T02:28:20.163Z,80.05
2019-02-25T02:29:20.014Z,79.29
2019-02-25T02:30:20.160Z,79.60
2019-02-25T02:31:20.009Z,78.35
2019-02-25T02:32:21.127Z,78.21
2019-02-25T02:33:20.041Z,78.73
2019-02-25T02:34:19.975Z,79.25
2019-02-25T02:35:19.968Z,79.36
2019-02-25T02:36:20.112Z,79.36
2019-02-25T02:37:19.944Z,78.83
2019-02-25T02:38:20.018Z,79.15
2019-02-25T02:39:19.944Z,79.15
2019-02-25T02:40:19.910Z,78.42
2019-02-25T02:41:20.030Z,79.05
2019-02-25T02:42:20.262Z,78.73
2019-02-25T02:43:20.040Z,78.94
2019-02-25T02:44:19.898Z,79.25
2019-02-25T02:45:20.538Z,79.36
2019-02-25T02:46:19.837Z,79.57
2019-02-25T02:47:21.241Z,79.46
2019-02-25T02:48:20.105Z,79.88
2019-02-25T02:49:19.957Z,79.25
2019-02-25T02:50:19.785Z,79.15
2019-02-25T02:51:19.953Z,79.46
2019-02-25T02:52:19.764Z,78.94
2019-02-25T02:53:19.838Z,79.25
2019-02-25T02:54:19.776Z,79.36
2019-02-25T02:55:19.856Z,79.57
2019-02-25T02:56:19.769Z,79.50
2019-02-25T02:57:19.782Z,79.57
2019-02-25T02:58:19.731Z,79.71
2019-02-25T02:59:19.859Z,79.71
2019-02-25T03:00:19.730Z,79.08
2019-02-25T03:01:19.789Z,80.13
2019-02-25T03:02:19.693Z,80.23
2019-02-25T03:03:19.644Z,81.06
2019-02-25T03:04:19.647Z,81.59
2019-02-25T03:05:19.760Z,81.52
2019-02-25T03:06:19.640Z,81.73
2019-02-25T03:07:19.679Z,81.52
2019-02-25T03:08:19.620Z,81.52
2019-02-25T03:09:19.617Z,81.62
2019-02-25T03:10:19.601Z,80.89
2019-02-25T03:11:19.659Z,80.75
2019-02-25T03:12:19.619Z,80.75
2019-02-25T03:13:19.687Z,80.23
2019-02-25T03:14:19.554Z,80.13
2019-02-25T03:15:19.594Z,80.02
2019-02-25T03:16:19.582Z,80.13
2019-02-25T03:17:19.524Z,80.02
2019-02-25T03:18:19.594Z,79.29
2019-02-25T03:19:19.489Z,79.50
2019-02-25T03:20:19.571Z,79.25
2019-02-25T03:21:19.476Z,79.29
2019-02-25T03:22:19.540Z,80.13
2019-02-25T03:23:19.470Z,80.13
2019-02-25T03:24:19.550Z,80.33
2019-02-25T03:25:19.470Z,81.10
2019-02-25T03:26:20.580Z,81.10
2019-02-25T03:27:19.420Z,81.93
2019-02-25T03:28:19.475Z,81.93
2019-02-25T03:29:19.402Z,80.79
2019-02-25T03:30:19.450Z,80.68
2019-02-25T03:31:19.428Z,80.58
2019-02-25T03:32:19.371Z,79.95
2019-02-25T03:33:19.368Z,80.05
2019-02-25T03:34:19.400Z,80.47
2019-02-25T03:35:19.359Z,80.27
2019-02-25T03:36:20.331Z,80.58
2019-02-25T03:37:19.315Z,80.58
2019-02-25T03:38:19.310Z,80.68
2019-02-25T03:39:19.326Z,80.27
2019-02-25T03:40:20.519Z,80.68
2019-02-25T03:41:19.263Z,80.79
2019-02-25T03:42:19.481Z,81.62
2019-02-25T03:43:19.233Z,81.66
2019-02-25T03:44:19.245Z,81.66
2019-02-25T03:45:19.259Z,82.07
2019-02-25T03:46:19.392Z,82.07
2019-02-25T03:47:19.210Z,82.12
2019-02-25T03:48:19.388Z,81.87
2019-02-25T03:49:19.195Z,82.22
2019-02-25T03:50:19.209Z,82.32
2019-02-25T03:51:19.328Z,82.39
2019-02-25T03:52:19.161Z,83.06
2019-02-25T03:53:19.360Z,83.06
2019-02-25T03:54:19.137Z,83.37
2019-02-25T03:55:19.335Z,83.06
2019-02-25T03:56:19.130Z,83.16
2019-02-25T03:57:19.256Z,82.74
2019-02-25T03:58:19.098Z,82.84
2019-02-25T03:59:19.274Z,83.06
2019-02-25T04:00:19.092Z,82.74
2019-02-25T04:01:19.182Z,82.84
2019-02-25T04:02:19.056Z,83.26
2019-02-25T04:03:19.202Z,83.47
2019-02-25T04:04:19.041Z,83.89
2019-02-25T04:05:20.204Z,83.58
2019-02-25T04:06:19.032Z,83.37
2019-02-25T04:07:18.996Z,83.68
2019-02-25T04:08:18.992Z,83.26
2019-02-25T04:09:19.138Z,83.54
2019-02-25T04:10:19.013Z,83.33
2019-02-25T04:11:19.154Z,83.06
2019-02-25T04:12:18.962Z,83.37
2019-02-25T04:13:18.924Z,83.16
2019-02-25T04:14:18.931Z,83.16
2019-02-25T04:15:19.044Z,82.74
2019-02-25T04:16:18.932Z,83.26
2019-02-25T04:17:19.069Z,82.95
2019-02-25T04:18:18.874Z,83.26
2019-02-25T04:19:18.883Z,82.84
2019-02-25T04:20:20.111Z,82.95
2019-02-25T04:21:18.866Z,83.06
2019-02-25T04:22:19.002Z,83.47
2019-02-25T04:23:18.842Z,83.37
2019-02-25T04:24:19.031Z,83.33
2019-02-25T04:25:18.852Z,83.23
2019-02-25T04:26:19.958Z,83.68
2019-02-25T04:27:18.796Z,83.26
2019-02-25T04:28:25.599Z,83.26
2019-02-25T04:29:18.789Z,83.47
2019-02-25T04:30:18.803Z,83.47
2019-02-25T04:31:18.766Z,83.26
2019-02-25T04:32:18.867Z,83.47
2019-02-25T04:33:18.736Z,83.58
2019-02-25T04:34:18.881Z,83.72
2019-02-25T04:35:18.746Z,83.62
2019-02-25T04:36:18.731Z,84.56
2019-02-25T04:37:18.673Z,84.10
2019-02-25T04:38:18.806Z,84.14
2019-02-25T04:39:18.659Z,83.83
2019-02-25T04:40:18.877Z,83.93
2019-02-25T04:41:18.694Z,83.83
2019-02-25T04:42:18.641Z,83.93
2019-02-25T04:43:18.776Z,83.93
2019-02-25T04:44:18.621Z,83.40
2019-02-25T04:45:19.970Z,83.20
2019-02-25T04:46:18.617Z,82.95
2019-02-25T04:47:18.774Z,82.84
2019-02-25T04:48:18.580Z,82.84
2019-02-25T04:49:18.787Z,82.74
2019-02-25T04:50:18.557Z,83.20
2019-02-25T04:51:18.667Z,83.06
2019-02-25T04:52:18.537Z,82.64
2019-02-25T04:53:18.562Z,82.53
2019-02-25T04:54:18.515Z,82.64
2019-02-25T04:55:18.614Z,82.43
2019-02-25T04:56:18.552Z,82.01
2019-02-25T04:57:18.540Z,81.45
2019-02-25T04:58:18.463Z,80.82
2019-02-25T04:59:18.468Z,80.72
2019-02-25T05:00:18.640Z,81.35
2019-02-25T05:01:18.470Z,81.66
2019-02-25T05:02:18.566Z,81.49
2019-02-25T05:03:18.441Z,81.59
2019-02-25T05:04:18.569Z,81.87
2019-02-25T05:05:18.401Z,82.39
2019-02-25T05:06:18.564Z,82.74
2019-02-25T05:07:18.379Z,82.22
2019-02-25T05:08:18.389Z,81.59
2019-02-25T05:09:18.383Z,81.35
2019-02-25T05:10:18.359Z,81.45
2019-02-25T05:11:18.886Z,81.76
2019-02-25T05:12:18.528Z,81.28
2019-02-25T05:13:18.324Z,81.56
2019-02-25T05:14:19.449Z,81.59
2019-02-25T05:15:18.276Z,81.45
2019-02-25T05:16:18.310Z,81.59
2019-02-25T05:17:18.296Z,81.59
2019-02-25T05:18:19.392Z,81.03
2019-02-25T05:19:18.251Z,80.93
2019-02-25T05:20:18.370Z,80.72
2019-02-25T05:21:18.257Z,79.99
2019-02-25T05:22:18.216Z,79.99
2019-02-25T05:23:18.384Z,79.78
2019-02-25T05:24:18.191Z,80.13
2019-02-25T05:25:18.308Z,79.78
2019-02-25T05:26:18.251Z,80.34
2019-02-25T05:27:18.308Z,80.41
2019-02-25T05:28:18.166Z,80.76
2019-02-25T05:29:18.319Z,80.76
2019-02-25T05:30:18.158Z,80.82
2019-02-25T05:31:18.299Z,80.86
2019-02-25T05:32:18.126Z,80.86
2019-02-25T05:33:18.100Z,80.76
2019-02-25T05:34:18.092Z,82.01
2019-02-25T05:35:18.293Z,82.01
2019-02-25T05:36:18.128Z,82.01
2019-02-25T05:37:19.075Z,80.86
2019-02-25T05:38:18.060Z,80.76
2019-02-25T05:39:18.056Z,80.86
2019-02-25T05:40:18.049Z,80.96
2019-02-25T05:41:18.189Z,80.44
2019-02-25T05:42:18.009Z,80.34
2019-02-25T05:43:18.145Z,80.86
2019-02-25T05:44:17.998Z,82.12
2019-02-25T05:45:17.993Z,81.07
2019-02-25T05:46:18.222Z,80.02
2019-02-25T05:47:18.054Z,79.19
2019-02-25T05:48:18.171Z,79.68
2019-02-25T05:49:17.932Z,79.71
2019-02-25T05:50:18.113Z,79.08
2019-02-25T05:51:17.980Z,79.08
2019-02-25T05:52:18.093Z,78.21
2019-02-25T05:53:17.894Z,78.84
2019-02-25T05:54:18.093Z,78.74
2019-02-25T05:55:17.890Z,77.90
2019-02-25T05:56:17.974Z,78.32
2019-02-25T05:57:17.895Z,78.21
2019-02-25T05:58:18.027Z,78.21
2019-02-25T05:59:17.846Z,77.69
2019-02-25T06:00:18.030Z,77.76
2019-02-25T06:01:17.845Z,78.07
2019-02-25T06:02:17.832Z,77.97
2019-02-25T06:03:17.946Z,78.11
2019-02-25T06:04:17.789Z,77.90
2019-02-25T06:05:19.006Z,78.70
2019-02-25T06:06:17.821Z,79.05
2019-02-25T06:07:17.863Z,78.94
2019-02-25T06:08:17.737Z,79.05
2019-02-25T06:09:17.886Z,79.78
2019-02-25T06:10:17.717Z,79.61
2019-02-25T06:11:18.830Z,79.82
2019-02-25T06:12:17.726Z,79.40
2019-02-25T06:13:17.692Z,79.08
2019-02-25T06:14:17.689Z,79.29
2019-02-25T06:15:17.835Z,79.61
2019-02-25T06:16:17.666Z,79.82
2019-02-25T06:17:17.914Z,79.50
2019-02-25T06:18:17.645Z,79.29
2019-02-25T06:19:17.643Z,79.40
2019-02-25T06:20:17.638Z,79.82
2019-02-25T06:21:17.769Z,80.02
2019-02-25T06:22:17.647Z,80.02
2019-02-25T06:23:17.773Z,80.06
2019-02-25T06:24:17.598Z,79.40
2019-02-25T06:25:17.592Z,79.40
2019-02-25T06:26:17.572Z,79.61
2019-02-25T06:27:17.770Z,79.61
2019-02-25T06:28:17.553Z,79.82
2019-02-25T06:29:17.713Z,79.71
2019-02-25T06:30:17.529Z,79.19
2019-02-25T06:31:17.513Z,78.67
2019-02-25T06:32:17.698Z,79.19
2019-02-25T06:33:17.475Z,79.19
2019-02-25T06:34:17.659Z,78.35
2019-02-25T06:35:17.527Z,78.35
2019-02-25T06:36:17.449Z,79.19
2019-02-25T06:37:17.500Z,79.71
2019-02-25T06:38:17.564Z,79.29
2019-02-25T06:39:17.426Z,80.16
2019-02-25T06:40:17.576Z,80.58
2019-02-25T06:41:17.401Z,80.90
2019-02-25T06:42:17.418Z,81.73
2019-02-25T06:43:17.397Z,81.73
2019-02-25T06:44:17.512Z,81.84
2019-02-25T06:45:17.362Z,81.63
2019-02-25T06:46:17.560Z,81.63
2019-02-25T06:47:17.371Z,81.73
2019-02-25T06:48:17.345Z,81.63
2019-02-25T06:49:17.519Z,81.73
2019-02-25T06:50:17.332Z,81.63
2019-02-25T06:51:17.452Z,80.58
2019-02-25T06:52:17.437Z,80.02
2019-02-25T06:53:17.463Z,80.13
2019-02-25T06:54:17.287Z,79.19
2019-02-25T06:55:17.369Z,79.40
2019-02-25T06:56:17.285Z,79.29
2019-02-25T06:57:17.478Z,80.09
2019-02-25T06:58:17.244Z,79.50
2019-02-25T06:59:17.244Z,80.20
2019-02-25T07:00:17.230Z,80.20
2019-02-25T07:01:17.356Z,80.13
2019-02-25T07:02:18.063Z,79.92
2019-02-25T07:03:17.336Z,77.06
2019-02-25T07:04:17.166Z,74.21
2019-02-25T07:05:17.173Z,72.82
2019-02-25T07:06:18.994Z,70.36
2019-02-25T07:07:17.304Z,70.64
2019-02-25T07:08:18.343Z,69.56
2019-02-25T07:09:17.253Z,69.22
2019-02-25T07:10:17.103Z,68.70
2019-02-25T07:11:17.513Z,68.25
2019-02-25T07:12:17.871Z,68.46
2019-02-25T07:13:17.069Z,69.40
2019-02-25T07:14:18.427Z,71.89
2019-02-25T07:15:17.043Z,73.03
2019-02-25T07:16:17.040Z,73.46
2019-02-25T07:17:17.066Z,73.28
2019-02-25T07:18:17.213Z,73.80
2019-02-25T07:19:17.007Z,73.59
2019-02-25T07:20:18.517Z,73.73
2019-02-25T07:21:16.993Z,73.42
2019-02-25T07:22:18.363Z,71.02
2019-02-25T07:23:17.145Z,67.97
2019-02-25T07:24:16.963Z,66.27
2019-02-25T07:25:17.071Z,64.61
2019-02-25T07:26:16.962Z,63.43
2019-02-25T07:27:20.285Z,62.68
2019-02-25T07:28:17.201Z,62.65
2019-02-25T07:29:17.205Z,62.45
2019-02-25T07:30:16.933Z,62.45
2019-02-25T07:31:16.992Z,60.44
2019-02-25T07:32:16.930Z,60.65
2019-02-25T07:33:16.867Z,60.31
2019-02-25T07:34:16.874Z,60.62
2019-02-25T07:35:17.022Z,60.18
2019-02-25T07:36:16.836Z,58.73
2019-02-25T07:37:18.043Z,58.83
2019-02-25T07:38:16.823Z,58.52
2019-02-25T07:39:16.807Z,57.04
2019-02-25T07:40:18.997Z,55.56
2019-02-25T07:41:16.818Z,55.56
2019-02-25T07:42:16.955Z,54.60
2019-02-25T07:43:16.768Z,53.77
2019-02-25T07:44:17.930Z,52.72
2019-02-25T07:45:16.739Z,53.00
2019-02-25T07:46:17.833Z,53.10
2019-02-25T07:47:16.754Z,52.15
2019-02-25T07:48:16.816Z,51.94
2019-02-25T07:49:16.710Z,52.12
2019-02-25T07:50:16.824Z,52.15
2019-02-25T07:51:16.705Z,52.25
2019-02-25T07:52:16.880Z,53.57
2019-02-25T07:53:16.656Z,54.32
2019-02-25T07:54:16.749Z,54.63
2019-02-25T07:55:16.690Z,54.22
2019-02-25T07:56:16.621Z,52.23
2019-02-25T07:57:16.645Z,51.63
2019-02-25T07:58:17.854Z,50.78
2019-02-25T07:59:16.586Z,49.64
2019-02-25T08:00:16.686Z,47.97
2019-02-25T08:01:16.555Z,48.17
2019-02-25T08:02:16.565Z,47.41
2019-02-25T08:03:16.600Z,47.61
2019-02-25T08:04:16.720Z,47.49
2019-02-25T08:05:16.533Z,47.90
2019-02-25T08:06:16.611Z,46.45
2019-02-25T08:07:16.499Z,45.42
2019-02-25T08:08:16.592Z,44.78
2019-02-25T08:09:16.648Z,46.33
2019-02-25T08:10:16.503Z,47.77
2019-02-25T08:11:16.657Z,50.87
2019-02-25T08:12:16.450Z,54.86
2019-02-25T08:13:16.694Z,56.44
2019-02-25T08:14:16.439Z,57.68
2019-02-25T08:15:16.826Z,59.33
2019-02-25T08:16:16.457Z,59.56
2019-02-25T08:17:16.513Z,58.01
2019-02-25T08:18:16.433Z,57.19
2019-02-25T08:19:16.499Z,57.40
2019-02-25T08:20:16.378Z,59.90
2019-02-25T08:21:16.523Z,63.69
2019-02-25T08:22:16.331Z,63.82
2019-02-25T08:23:16.508Z,62.48
2019-02-25T08:24:16.365Z,65.89
2019-02-25T08:25:16.459Z,67.24
2019-02-25T08:26:16.325Z,67.54
2019-02-25T08:27:18.395Z,67.75
2019-02-25T08:28:25.887Z,68.61
2019-02-25T08:29:17.855Z,69.12
2019-02-25T08:30:17.854Z,68.71
2019-02-25T08:31:17.872Z,67.65
2019-02-25T08:32:17.855Z,64.45
2019-02-25T08:33:17.854Z,66.82
2019-02-25T08:34:18.873Z,65.76
2019-02-25T08:35:17.854Z,64.70
2019-02-25T08:36:17.856Z,65.11
2019-02-25T08:37:16.153Z,65.70
2019-02-25T08:38:17.911Z,63.29
2019-02-25T08:39:17.879Z,62.06
2019-02-25T08:40:17.853Z,61.41
2019-02-25T08:41:17.873Z,59.45
2019-02-25T08:42:17.853Z,57.09
2019-02-25T08:43:18.870Z,57.91
2019-02-25T08:44:17.869Z,57.78
2019-02-25T08:45:17.855Z,55.62
2019-02-25T08:46:17.857Z,54.90
2019-02-25T08:47:17.895Z,54.48
2019-02-25T08:48:17.875Z,54.07
2019-02-25T08:49:17.868Z,55.28
2019-02-25T08:50:17.862Z,55.59
2019-02-25T08:51:17.892Z,54.25
2019-02-25T08:52:17.857Z,53.63
2019-02-25T08:53:17.867Z,53.53
2019-02-25T08:54:18.863Z,54.17
2019-02-25T08:55:17.927Z,54.48
2019-02-25T08:56:17.853Z,54.58
2019-02-25T08:57:18.870Z,53.56
2019-02-25T08:58:17.866Z,54.07
2019-02-25T08:59:17.866Z,54.07
2019-02-25T09:00:17.853Z,55.21
2019-02-25T09:01:17.896Z,52.81
2019-02-25T09:02:17.853Z,51.04
2019-02-25T09:03:17.853Z,50.60
2019-02-25T09:04:17.867Z,51.71
2019-02-25T09:05:17.365Z,50.14
2019-02-25T09:06:15.850Z,49.52
2019-02-25T09:07:17.389Z,46.65
2019-02-25T09:08:17.355Z,47.96
2019-02-25T09:09:17.381Z,48.27
2019-02-25T09:10:17.353Z,50.74
2019-02-25T09:11:16.795Z,51.95
2019-02-25T09:12:17.373Z,50.82
2019-02-25T09:13:17.355Z,53.17
2019-02-25T09:14:17.370Z,52.46
2019-02-25T09:15:17.417Z,49.05
2019-02-25T09:16:17.358Z,50.20
2019-02-25T09:17:17.356Z,47.22
2019-02-25T09:18:17.369Z,47.41
2019-02-25T09:19:17.364Z,47.30
2019-02-25T09:20:17.352Z,48.22
2019-02-25T09:21:17.355Z,48.33
2019-02-25T09:22:17.356Z,47.81
2019-02-25T09:23:17.356Z,47.30
2019-02-25T09:24:17.381Z,46.28
2019-02-25T09:25:17.352Z,45.04
2019-02-25T09:26:17.355Z,45.36
2019-02-25T09:27:17.355Z,44.33
2019-02-25T09:28:17.353Z,43.40
2019-02-25T09:29:15.637Z,43.59
2019-02-25T09:30:17.379Z,46.67
2019-02-25T09:31:17.355Z,45.03
2019-02-25T09:32:19.030Z,45.95
2019-02-25T09:33:18.357Z,45.74
2019-02-25T09:34:17.370Z,45.97
2019-02-25T09:35:17.353Z,45.74
2019-02-25T09:36:17.369Z,45.95
2019-02-25T09:37:17.354Z,43.79
2019-02-25T09:38:17.357Z,44.82
2019-02-25T09:39:17.365Z,46.44
2019-02-25T09:40:17.369Z,44.59
2019-02-25T09:41:17.352Z,44.49
2019-02-25T09:42:17.380Z,43.88
2019-02-25T09:43:17.368Z,46.64
2019-02-25T09:44:17.360Z,43.55
2019-02-25T09:45:17.371Z,44.47
2019-02-25T09:46:17.368Z,45.60
2019-02-25T09:47:17.355Z,45.80
2019-02-25T09:48:17.353Z,43.75
2019-02-25T09:49:17.527Z,44.47
2019-02-25T09:50:17.359Z,44.35
2019-02-25T09:51:17.384Z,46.62
2019-02-25T09:52:16.394Z,45.68
2019-02-25T09:53:16.859Z,44.57
2019-02-25T09:54:16.867Z,43.73
2019-02-25T09:55:16.854Z,43.63
2019-02-25T09:56:16.869Z,43.73
2019-02-25T09:57:16.923Z,44.55
2019-02-25T09:58:15.871Z,44.53
2019-02-25T09:59:16.858Z,41.56
2019-02-25T10:00:16.873Z,41.97
2019-02-25T10:01:16.859Z,41.56
2019-02-25T10:02:16.889Z,42.67
2019-02-25T10:03:16.856Z,44.00
2019-02-25T10:04:16.853Z,43.69
2019-02-25T10:05:16.865Z,42.36
2019-02-25T10:06:16.855Z,41.42
2019-02-25T10:07:16.855Z,41.42
2019-02-25T10:08:16.865Z,40.40
2019-02-25T10:09:16.862Z,41.63
2019-02-25T10:10:16.867Z,44.08
2019-02-25T10:11:16.855Z,44.98
2019-02-25T10:12:16.862Z,46.11
2019-02-25T10:13:16.874Z,46.00
2019-02-25T10:14:16.853Z,46.41
2019-02-25T10:15:16.921Z,43.02
2019-02-25T10:16:16.857Z,46.08
2019-02-25T10:17:23.552Z,47.82
2019-02-25T10:18:17.856Z,46.39
2019-02-25T10:19:16.868Z,48.54
2019-02-25T10:20:17.859Z,45.76
2019-02-25T10:21:16.859Z,43.91
2019-02-25T10:22:16.853Z,43.71
2019-02-25T10:23:16.856Z,43.20
2019-02-25T10:24:16.866Z,45.65
2019-02-25T10:25:16.872Z,45.14
2019-02-25T10:26:16.856Z,44.41
2019-02-25T10:27:16.856Z,44.22
2019-02-25T10:28:16.856Z,43.69
2019-02-25T10:29:16.856Z,44.20
2019-02-25T10:30:16.890Z,45.53
2019-02-25T10:31:17.506Z,43.38
2019-02-25T10:32:16.856Z,41.24
2019-02-25T10:33:14.929Z,41.33
2019-02-25T10:34:17.990Z,41.22
2019-02-25T10:35:16.857Z,41.02
2019-02-25T10:36:16.874Z,39.49
2019-02-25T10:37:17.126Z,39.90
2019-02-25T10:38:16.858Z,41.02
2019-02-25T10:39:17.730Z,40.30
2019-02-25T10:40:19.052Z,40.71
2019-02-25T10:41:19.694Z,39.90
2019-02-25T10:42:16.443Z,41.22
2019-02-25T10:43:16.398Z,37.02
2019-02-25T10:44:16.361Z,37.02
2019-02-25T10:45:16.355Z,37.43
2019-02-25T10:46:17.698Z,37.43
2019-02-25T10:47:18.983Z,36.61
2019-02-25T10:48:17.700Z,34.56
2019-02-25T10:49:16.354Z,34.35
2019-02-25T10:50:14.749Z,35.37
2019-02-25T10:51:16.372Z,34.05
2019-02-25T10:52:17.259Z,29.87
2019-02-25T10:53:18.224Z,33.23
2019-02-25T10:54:16.941Z,31.91
2019-02-25T10:55:16.359Z,29.56
2019-02-25T10:56:17.334Z,31.40
2019-02-25T10:57:16.367Z,32.52
2019-02-25T10:58:16.368Z,31.60
2019-02-25T10:59:16.357Z,29.66
2019-02-25T11:00:16.390Z,28.95
2019-02-25T11:01:19.662Z,28.42
2019-02-25T11:02:17.501Z,29.44
2019-02-25T11:03:17.834Z,30.55
2019-02-25T11:04:17.517Z,29.84
2019-02-25T11:05:16.385Z,31.35
2019-02-25T11:06:16.369Z,29.94
2019-02-25T11:07:15.798Z,30.45
2019-02-25T11:08:16.360Z,30.96
2019-02-25T11:09:18.029Z,29.93
2019-02-25T11:10:18.186Z,29.32
2019-02-25T11:11:18.337Z,28.50
2019-02-25T11:12:16.358Z,27.89
2019-02-25T11:13:16.358Z,25.65
2019-02-25T11:14:16.366Z,27.79
2019-02-25T11:15:16.358Z,28.50
2019-02-25T11:16:18.177Z,28.81
2019-02-25T11:17:18.172Z,28.91
2019-02-25T11:18:19.231Z,28.50
2019-02-25T11:19:16.357Z,29.72
2019-02-25T11:20:16.386Z,28.60
2019-02-25T11:21:16.372Z,29.11
2019-02-25T11:22:16.518Z,28.52
2019-02-25T11:23:17.649Z,29.01
2019-02-25T11:24:17.009Z,30.33
2019-02-25T11:25:16.448Z,31.05
2019-02-25T11:26:15.874Z,30.76
2019-02-25T11:27:15.860Z,30.86
2019-02-25T11:28:25.453Z,29.62
2019-02-25T11:29:16.856Z,29.83
2019-02-25T11:30:16.677Z,30.33
2019-02-25T11:31:18.164Z,30.21
2019-02-25T11:32:18.907Z,29.88
2019-02-25T11:33:15.857Z,29.63
2019-02-25T11:34:15.883Z,28.66
2019-02-25T11:35:15.860Z,27.98
2019-02-25T11:36:17.761Z,25.61
2019-02-25T11:37:16.822Z,24.86
2019-02-25T11:38:15.860Z,24.74
2019-02-25T11:39:15.858Z,23.60
2019-02-25T11:40:15.873Z,22.77
2019-02-25T11:41:15.868Z,22.15
2019-02-25T11:42:19.775Z,22.54
2019-02-25T11:43:16.696Z,21.62
2019-02-25T11:44:17.117Z,22.60
2019-02-25T11:45:15.866Z,22.49
2019-02-25T11:46:15.916Z,23.76
2019-02-25T11:47:15.861Z,22.35
2019-02-25T11:48:15.871Z,21.15
2019-02-25T11:49:15.865Z,21.85
2019-02-25T11:50:15.864Z,21.74
2019-02-25T11:51:15.871Z,21.25
2019-02-25T11:52:15.901Z,20.84
2019-02-25T11:53:14.074Z,20.43
2019-02-25T11:54:15.864Z,20.73
2019-02-25T11:55:15.876Z,21.03
2019-02-25T11:56:15.874Z,19.42
2019-02-25T11:57:15.866Z,19.42
2019-02-25T11:58:15.900Z,19.42
2019-02-25T11:59:15.865Z,20.23
2019-02-25T12:00:15.870Z,21.03
2019-02-25T12:01:15.877Z,20.84
2019-02-25T12:02:24.849Z,20.14
2019-02-25T12:03:16.861Z,21.03
2019-02-25T12:04:15.881Z,20.53
2019-02-25T12:05:15.863Z,21.03
2019-02-25T12:06:15.890Z,22.01
2019-02-25T12:07:15.866Z,20.73
2019-02-25T12:08:15.867Z,21.81
2019-02-25T12:09:15.875Z,20.31
2019-02-25T12:10:15.892Z,21.11
2019-02-25T12:11:15.878Z,21.58
2019-02-25T12:12:15.365Z,21.17
2019-02-25T12:13:15.374Z,20.46
2019-02-25T12:14:15.370Z,19.46
2019-02-25T12:15:15.368Z,19.56
2019-02-25T12:16:13.900Z,19.46
2019-02-25T12:17:15.372Z,18.46
2019-02-25T12:18:15.368Z,18.56
2019-02-25T12:19:17.923Z,19.37
2019-02-25T12:20:15.377Z,18.67
2019-02-25T12:21:15.377Z,18.88
2019-02-25T12:22:13.778Z,19.29
2019-02-25T12:23:15.389Z,18.99
2019-02-25T12:24:15.372Z,19.79
2019-02-25T12:25:15.367Z,20.79
2019-02-25T12:26:15.375Z,19.88
2019-02-25T12:27:15.371Z,19.17
2019-02-25T12:28:15.374Z,20.26
2019-02-25T12:29:15.383Z,20.45
2019-02-25T12:30:15.369Z,19.35
2019-02-25T12:31:15.382Z,18.96
2019-02-25T12:32:15.366Z,19.74
2019-02-25T12:33:15.453Z,20.43
2019-02-25T12:34:15.376Z,18.65
2019-02-25T12:35:15.368Z,19.34
2019-02-25T12:36:15.610Z,18.63
2019-02-25T12:37:15.364Z,17.73
2019-02-25T12:38:15.368Z,17.34
2019-02-25T12:39:15.378Z,18.63
2019-02-25T12:40:15.368Z,17.94
2019-02-25T12:41:15.377Z,18.16
2019-02-25T12:42:15.366Z,18.86
2019-02-25T12:43:15.367Z,17.77
2019-02-25T12:44:15.385Z,17.76
2019-02-25T12:45:13.514Z,17.16
2019-02-25T12:46:15.384Z,17.55
2019-02-25T12:47:15.366Z,17.05
2019-02-25T12:48:16.376Z,17.44
2019-02-25T12:49:15.369Z,18.24
2019-02-25T12:50:15.401Z,17.44
2019-02-25T12:51:15.387Z,16.05
2019-02-25T12:52:15.367Z,17.53